الصفحة الرئيسية
METAR-TAF:

METAR-TAF

مطار :

مطار الرباط سلا

الرباط, المغرب

دائرة عرض: 34-03N, خط طول: 006-46W, ارتفاع: 84 متر

مراقبة الطقس الحالي

تاريخ ووقت الإصدار 24 دقيقة قبل الساعة 09:30UTC
ريح 4 عقدة من الجنوب/الجنوب الشرقي, الاتجاه يتراوح بين الشرق و الجنوب
درجة الحرارة 12°درجة مئوية
الرطوبة 94%
ضغط 1027 hPa
الرؤية: 5000 متر
غيوم قليلة على ارتفاع 1500 قدم
غيوم متفرقة على ارتفاع 2000 قدم
غيوم مفككة على ارتفاع 8000 قدم
مطر خفيف

METAR: GMME 140930Z 15004KT 080V180 5000 -RA FEW015 SCT020 BKN080 12/11 Q1027 NOSIG

زمن: 09:54 (09:54 UTC)

توقعات

تاريخ ووقت الإصدار 4ساعات و 54 دقيقة قبل الساعة 05:00UTC
التوقعات صالحة من14 الساعة 06 UTC إلى 15 الساعة 12 UTC
ريح 2 عقدة من الجنوب/الجنوب الشرقي
الرؤية: 6000 متر
غيوم متفرقة على ارتفاع 2000 قدم
مؤقت
من 14 الساعة 07 UTC إلى 14 الساعة 14 UTC
الرؤية: 4000 متر
غيوم مفككة على ارتفاع 2000 قدم
غيوم مفككة على ارتفاع 5000 قدم
مطر

TAF: GMME 140500Z 1406/1512 15002KT 6000 SCT020 TEMPO 1407/1414 4000 RA BKN020 BKN050

أرصاد الطقس والتوقعات من أكثر من 4000 مطار (تقارير الطقس للمطار METAR والتنبؤ بالطقس بالمطارTAF).

المحطات المتاحة هي النقط الصفراء والحمراء على الخريطة.

حرك المؤشر فوق النقطة لمعرفة اسم المحطة.

ثم انقر لمعرفة أرصاد وتوقعات الطقس.

لتغيير الخارطة: اضغط على الأزرار الخضراء مع رمز الصليب الأسود للتكبير. على الزر الأخضر مع شرطة للتصغير، أو على الأسهم الخضراء للخرائط المجاورة.


METAR-TAF: